Time;durP1;ratioP1;P1;durP2;ratioP2;P2;SDS_P1;SDS_P2;PMS_P1;PMS_P2;Temp;Humidity;BMP_temperature;BMP_pressure;BME280_temperature;BME280_humidity;BME280_pressure;Samples;Min_cycle;Max_cycle;Signal;HPM_P1;HPM_P2
2021/10/15 00:02:20;;;;;;;21.88;6.10;;;;;;;;;;5017375;28;20021;-89
2021/10/15 00:04:45;;;;;;;31.73;6.83;;;;;;;;;;5017339;28;20919;-89
2021/10/15 00:07:10;;;;;;;26.93;6.50;;;;;;;;;;5017553;28;20287;-89
2021/10/15 00:09:36;;;;;;;32.00;7.00;;;;;;;;;;5017023;28;20259;-89
2021/10/15 00:12:02;;;;;;;18.55;6.32;;;;;;;;;;5034981;28;20784;-89
2021/10/15 00:14:27;;;;;;;27.98;7.53;;;;;;;;;;5035030;28;20500;-89
2021/10/15 00:16:54;;;;;;;29.65;7.55;;;;;;;;;;5017075;28;20040;-89
2021/10/15 00:19:19;;;;;;;31.60;7.00;;;;;;;;;;5017387;28;20045;-89
2021/10/15 00:21:44;;;;;;;26.48;6.95;;;;;;;;;;5016769;28;20187;-88
2021/10/15 00:24:10;;;;;;;22.48;6.40;;;;;;;;;;5033677;28;20027;-89
2021/10/15 00:26:35;;;;;;;30.50;7.65;;;;;;;;;;5031641;28;20093;-89
2021/10/15 00:29:01;;;;;;;37.55;8.18;;;;;;;;;;5014172;28;20033;-89
2021/10/15 00:31:27;;;;;;;31.40;7.70;;;;;;;;;;5013964;28;20025;-89
2021/10/15 00:33:52;;;;;;;26.83;8.02;;;;;;;;;;5013824;28;20481;-89
2021/10/15 00:36:17;;;;;;;23.35;6.57;;;;;;;;;;4999286;28;20457;-89
2021/10/15 00:38:43;;;;;;;26.58;7.38;;;;;;;;;;4996011;28;20385;-89
2021/10/15 00:41:11;;;;;;;32.22;8.65;;;;;;;;;;5031814;28;20025;-89
2021/10/15 00:43:36;;;;;;;32.88;8.38;;;;;;;;;;5030508;28;20056;-89
2021/10/15 00:46:01;;;;;;;33.60;7.23;;;;;;;;;;5013839;28;20029;-89
2021/10/15 00:48:27;;;;;;;24.92;7.00;;;;;;;;;;5013883;28;20325;-89
2021/10/15 00:50:52;;;;;;;27.30;6.17;;;;;;;;;;5013683;28;20371;-89
2021/10/15 00:53:17;;;;;;;30.35;6.50;;;;;;;;;;5013784;28;20272;-89
2021/10/15 00:55:43;;;;;;;43.87;9.23;;;;;;;;;;5013603;28;20461;-88
2021/10/15 00:58:08;;;;;;;26.45;7.20;;;;;;;;;;5013558;28;20632;-89
2021/10/15 01:00:33;;;;;;;34.93;7.83;;;;;;;;;;5013368;28;20028;-88
2021/10/15 01:02:59;;;;;;;27.57;7.40;;;;;;;;;;5013508;28;20288;-89
2021/10/15 01:05:24;;;;;;;21.90;7.00;;;;;;;;;;5014164;28;20605;-89
2021/10/15 01:07:50;;;;;;;27.77;6.80;;;;;;;;;;5031486;28;20021;-89
2021/10/15 01:10:16;;;;;;;30.45;7.18;;;;;;;;;;5031254;28;20029;-89
2021/10/15 01:12:41;;;;;;;26.05;7.13;;;;;;;;;;5031011;28;20041;-89
2021/10/15 01:15:07;;;;;;;26.70;7.80;;;;;;;;;;5013584;28;20051;-89
2021/10/15 01:17:32;;;;;;;29.85;7.80;;;;;;;;;;5013585;28;20021;-89
2021/10/15 01:19:57;;;;;;;34.55;8.00;;;;;;;;;;5032738;28;20013;-89
2021/10/15 01:22:27;;;;;;;28.02;7.25;;;;;;;;;;5033211;28;20013;-89
2021/10/15 01:24:52;;;;;;;36.90;7.68;;;;;;;;;;5033894;28;20022;-89
2021/10/15 01:27:17;;;;;;;31.15;8.43;;;;;;;;;;5031925;28;20627;-89
2021/10/15 01:29:42;;;;;;;37.60;8.20;;;;;;;;;;5014893;28;20056;-89
2021/10/15 01:32:09;;;;;;;35.10;7.75;;;;;;;;;;5031322;28;20108;-90
2021/10/15 01:34:34;;;;;;;31.55;7.82;;;;;;;;;;5013041;28;20113;-89
2021/10/15 01:37:00;;;;;;;34.00;7.18;;;;;;;;;;5031210;28;20116;-89
2021/10/15 01:39:25;;;;;;;31.07;7.50;;;;;;;;;;5013200;28;20036;-89
2021/10/15 01:41:50;;;;;;;32.93;8.40;;;;;;;;;;5013000;28;20656;-90
2021/10/15 01:44:15;;;;;;;38.85;9.23;;;;;;;;;;5012747;28;20120;-89
2021/10/15 01:46:40;;;;;;;29.80;7.93;;;;;;;;;;5012893;28;20030;-90
2021/10/15 01:49:06;;;;;;;49.70;9.60;;;;;;;;;;5012855;28;20052;-89
2021/10/15 01:51:31;;;;;;;49.50;11.53;;;;;;;;;;5030261;28;20034;-90
2021/10/15 01:53:56;;;;;;;41.30;11.00;;;;;;;;;;5012893;28;20475;-90
2021/10/15 01:56:21;;;;;;;47.13;12.10;;;;;;;;;;5033083;28;20045;-91
2021/10/15 01:58:47;;;;;;;35.30;11.23;;;;;;;;;;5015347;28;20104;-90
2021/10/15 02:01:12;;;;;;;46.40;13.65;;;;;;;;;;5013969;28;20036;-90
2021/10/15 02:03:37;;;;;;;56.25;14.52;;;;;;;;;;5032184;28;20029;-91
2021/10/15 02:06:02;;;;;;;44.63;14.15;;;;;;;;;;5013769;28;20519;-90
2021/10/15 02:08:28;;;;;;;48.90;14.32;;;;;;;;;;5012901;28;20075;-90
2021/10/15 02:10:53;;;;;;;49.03;12.18;;;;;;;;;;5014412;28;20120;-90
2021/10/15 02:13:18;;;;;;;39.78;10.40;;;;;;;;;;5014777;28;20060;-90
2021/10/15 02:15:43;;;;;;;43.25;10.75;;;;;;;;;;5016649;28;20124;-90
2021/10/15 02:18:09;;;;;;;43.30;13.30;;;;;;;;;;5017546;28;20017;-91
2021/10/15 02:20:34;;;;;;;48.08;12.07;;;;;;;;;;5017070;28;20055;-90
2021/10/15 02:22:59;;;;;;;44.60;11.10;;;;;;;;;;5017098;28;20049;-91
2021/10/15 02:25:25;;;;;;;54.60;12.32;;;;;;;;;;5033980;28;20025;-90
2021/10/15 02:27:50;;;;;;;45.80;10.90;;;;;;;;;;5016422;28;20065;-91
2021/10/15 02:30:16;;;;;;;62.63;13.43;;;;;;;;;;5016669;28;20124;-90
2021/10/15 02:32:42;;;;;;;69.30;14.63;;;;;;;;;;5016956;28;20033;-90
2021/10/15 02:35:08;;;;;;;63.42;14.35;;;;;;;;;;5019817;28;20072;-90
2021/10/15 02:37:34;;;;;;;63.03;14.85;;;;;;;;;;5020713;28;20099;-91
2021/10/15 02:39:59;;;;;;;85.50;21.67;;;;;;;;;;5021015;28;20024;-91
2021/10/15 02:42:24;;;;;;;91.55;17.90;;;;;;;;;;5020835;28;20199;-90
2021/10/15 02:44:49;;;;;;;74.05;18.83;;;;;;;;;;5021443;28;20022;-90
2021/10/15 02:47:15;;;;;;;78.47;15.13;;;;;;;;;;5023146;28;20056;-90
2021/10/15 02:49:40;;;;;;;48.45;11.00;;;;;;;;;;5021327;28;20303;-90
2021/10/15 02:52:05;;;;;;;52.60;13.37;;;;;;;;;;5021417;28;20033;-89
2021/10/15 02:54:30;;;;;;;31.45;6.38;;;;;;;;;;5041969;28;20332;-90
2021/10/15 02:56:56;;;;;;;28.42;9.55;;;;;;;;;;5020342;28;20017;-90
2021/10/15 02:59:21;;;;;;;34.53;7.75;;;;;;;;;;5020536;28;20017;-91
2021/10/15 03:01:46;;;;;;;45.58;7.43;;;;;;;;;;5021598;28;20389;-90
2021/10/15 03:04:11;;;;;;;28.95;5.95;;;;;;;;;;5021514;28;20487;-90
2021/10/15 03:06:37;;;;;;;24.25;6.15;;;;;;;;;;5020216;28;20838;-90
2021/10/15 03:09:02;;;;;;;17.45;5.35;;;;;;;;;;5020825;28;20357;-90
2021/10/15 03:11:27;;;;;;;21.73;6.32;;;;;;;;;;5020471;28;20037;-91
2021/10/15 03:13:53;;;;;;;23.03;6.87;;;;;;;;;;5021050;28;20021;-91
2021/10/15 03:16:18;;;;;;;25.70;5.93;;;;;;;;;;5022513;28;20623;-91
2021/10/15 03:18:43;;;;;;;37.97;6.72;;;;;;;;;;5037850;28;20535;-91
2021/10/15 03:21:09;;;;;;;38.70;6.70;;;;;;;;;;5019166;28;20380;-91
2021/10/15 03:23:34;;;;;;;28.40;5.57;;;;;;;;;;5020020;28;20022;-90
2021/10/15 03:25:59;;;;;;;25.02;5.30;;;;;;;;;;5020816;28;20025;-91
2021/10/15 03:28:24;;;;;;;34.88;6.88;;;;;;;;;;5021541;28;20119;-91
2021/10/15 03:30:50;;;;;;;52.13;6.45;;;;;;;;;;5038312;28;20033;-91
2021/10/15 03:33:15;;;;;;;25.45;5.50;;;;;;;;;;5019605;28;20030;-91
2021/10/15 03:35:40;;;;;;;11.77;2.72;;;;;;;;;;5039418;28;20053;-92
2021/10/15 03:38:06;;;;;;;24.65;1.77;;;;;;;;;;5022116;28;20025;-91
2021/10/15 03:40:31;;;;;;;32.17;2.55;;;;;;;;;;5021526;28;20053;-91
2021/10/15 03:42:59;;;;;;;19.42;1.95;;;;;;;;;;5023413;28;20393;-91
2021/10/15 03:45:32;;;;;;;11.70;1.60;;;;;;;;;;5020521;28;20389;-91
2021/10/15 03:47:58;;;;;;;7.97;1.10;;;;;;;;;;5018844;28;20026;-91
2021/10/15 03:50:23;;;;;;;5.90;1.58;;;;;;;;;;5022684;28;20024;-91
2021/10/15 03:52:48;;;;;;;8.15;1.27;;;;;;;;;;5020057;28;20029;-91
2021/10/15 03:55:14;;;;;;;8.52;1.55;;;;;;;;;;5021983;28;20021;-91
2021/10/15 03:57:40;;;;;;;10.05;1.75;;;;;;;;;;5026385;28;20032;-91
2021/10/15 04:00:07;;;;;;;7.45;1.45;;;;;;;;;;5024030;28;20183;-92
2021/10/15 04:02:36;;;;;;;12.57;2.42;;;;;;;;;;5025109;28;20029;-92
2021/10/15 04:05:01;;;;;;;11.68;1.67;;;;;;;;;;5020977;28;20024;-91
2021/10/15 04:07:27;;;;;;;9.80;1.83;;;;;;;;;;5026919;28;20022;-92
2021/10/15 04:09:52;;;;;;;13.95;2.08;;;;;;;;;;5020061;28;20017;-91
2021/10/15 04:12:18;;;;;;;17.35;2.42;;;;;;;;;;5016963;28;20033;-91
2021/10/15 04:14:43;;;;;;;8.57;1.63;;;;;;;;;;5037923;28;20033;-91
2021/10/15 04:17:08;;;;;;;9.35;1.80;;;;;;;;;;5022243;28;20028;-92
2021/10/15 04:19:34;;;;;;;12.70;2.00;;;;;;;;;;5018636;28;20101;-91
2021/10/15 04:21:59;;;;;;;11.80;2.00;;;;;;;;;;5038115;28;20112;-91
2021/10/15 04:24:26;;;;;;;18.95;2.10;;;;;;;;;;5020402;28;20030;-92
2021/10/15 04:26:51;;;;;;;18.15;2.30;;;;;;;;;;5017315;28;20029;-92
2021/10/15 04:29:17;;;;;;;17.98;2.20;;;;;;;;;;5016491;28;20038;-91
2021/10/15 04:31:42;;;;;;;29.85;2.90;;;;;;;;;;5016229;28;20091;-91
2021/10/15 04:34:07;;;;;;;28.83;3.65;;;;;;;;;;5017311;28;20048;-91
2021/10/15 04:36:32;;;;;;;14.68;2.63;;;;;;;;;;5016232;28;20621;-90
2021/10/15 04:38:57;;;;;;;17.20;2.40;;;;;;;;;;5034467;28;20075;-91
2021/10/15 04:41:23;;;;;;;28.50;3.33;;;;;;;;;;5014930;28;20268;-90
2021/10/15 04:43:48;;;;;;;16.67;3.00;;;;;;;;;;5016092;28;20788;-91
2021/10/15 04:46:13;;;;;;;24.20;4.07;;;;;;;;;;5016694;28;20036;-90
2021/10/15 04:48:38;;;;;;;29.25;3.70;;;;;;;;;;5031801;28;20021;-91
2021/10/15 04:51:03;;;;;;;30.33;4.43;;;;;;;;;;5015914;28;20814;-91
2021/10/15 04:53:29;;;;;;;19.85;3.15;;;;;;;;;;5017120;28;20265;-91
2021/10/15 04:55:54;;;;;;;26.70;3.35;;;;;;;;;;5015475;28;20021;-90
2021/10/15 04:58:19;;;;;;;33.75;4.07;;;;;;;;;;5015953;28;20021;-91
2021/10/15 05:00:44;;;;;;;22.98;3.83;;;;;;;;;;5017191;28;20025;-90
2021/10/15 05:03:10;;;;;;;21.92;3.35;;;;;;;;;;5033348;28;20108;-90
2021/10/15 05:05:39;;;;;;;21.95;3.45;;;;;;;;;;5016169;28;20030;-91
2021/10/15 05:08:05;;;;;;;23.38;3.13;;;;;;;;;;5014700;28;20031;-91
2021/10/15 05:10:30;;;;;;;20.90;3.22;;;;;;;;;;5033539;28;20128;-91
2021/10/15 05:12:55;;;;;;;18.73;3.42;;;;;;;;;;5015437;28;20030;-90
2021/10/15 05:15:21;;;;;;;17.65;2.70;;;;;;;;;;5032268;28;20030;-90
2021/10/15 05:17:47;;;;;;;21.50;3.33;;;;;;;;;;5015027;28;20027;-90
2021/10/15 05:20:15;;;;;;;32.60;3.70;;;;;;;;;;5032605;28;20044;-91
2021/10/15 05:22:41;;;;;;;19.50;3.38;;;;;;;;;;5014011;28;20032;-90
2021/10/15 05:25:06;;;;;;;13.00;2.88;;;;;;;;;;5015356;28;20570;-90
2021/10/15 05:27:31;;;;;;;27.08;4.05;;;;;;;;;;5013826;28;20089;-90
2021/10/15 05:29:58;;;;;;;25.73;4.22;;;;;;;;;;5014254;28;20049;-90
2021/10/15 05:32:23;;;;;;;31.52;4.50;;;;;;;;;;5014105;28;20377;-91
2021/10/15 05:34:48;;;;;;;26.42;4.35;;;;;;;;;;5014449;28;20075;-90
2021/10/15 05:37:14;;;;;;;25.70;3.67;;;;;;;;;;5013544;28;20025;-90
2021/10/15 05:39:39;;;;;;;29.90;4.97;;;;;;;;;;5031375;28;20751;-90
2021/10/15 05:42:05;;;;;;;35.75;4.97;;;;;;;;;;5031368;28;20026;-90
2021/10/15 05:44:30;;;;;;;18.00;3.13;;;;;;;;;;5013922;28;20028;-89
2021/10/15 05:46:59;;;;;;;27.48;3.50;;;;;;;;;;5031964;28;20461;-90
2021/10/15 05:49:24;;;;;;;30.33;4.25;;;;;;;;;;5013499;28;20025;-90
2021/10/15 05:51:50;;;;;;;22.33;4.00;;;;;;;;;;5013469;28;20040;-89
2021/10/15 05:54:24;;;;;;;18.33;2.92;;;;;;;;;;5013283;28;20268;-89
2021/10/15 05:59:33;;;;;;;18.88;3.08;;;;;;;;;;5032991;28;20033;-90
2021/10/15 06:02:04;;;;;;;30.60;3.93;;;;;;;;;;5013961;28;20017;-90
2021/10/15 06:05:24;;;;;;;19.75;3.50;;;;;;;;;;5030957;28;20272;-90
2021/10/15 06:15:43;;;;;;;19.10;3.88;;;;;;;;;;5035217;28;20029;-89
2021/10/15 06:18:14;;;;;;;20.10;3.17;;;;;;;;;;5016924;28;20025;-89
2021/10/15 06:20:40;;;;;;;26.60;4.57;;;;;;;;;;5034622;28;20461;-89
2021/10/15 06:23:05;;;;;;;27.60;4.43;;;;;;;;;;5035278;28;20037;-89
2021/10/15 06:25:31;;;;;;;23.33;3.25;;;;;;;;;;5017135;28;20055;-90
2021/10/15 06:28:02;;;;;;;29.58;3.78;;;;;;;;;;5016763;28;20025;-89
2021/10/15 06:30:31;;;;;;;22.40;3.58;;;;;;;;;;5017340;28;20090;-90
2021/10/15 06:32:57;;;;;;;17.23;3.50;;;;;;;;;;5017783;28;20066;-90
2021/10/15 06:35:22;;;;;;;21.30;3.50;;;;;;;;;;5010059;28;20089;-90
2021/10/15 06:37:47;;;;;;;31.75;4.03;;;;;;;;;;4999453;28;20112;-89
2021/10/15 06:40:20;;;;;;;21.52;3.92;;;;;;;;;;5079367;22;20054;-89
2021/10/15 06:42:52;;;;;;;21.83;2.97;;;;;;;;;;5015196;28;20029;-89
2021/10/15 06:48:01;;;;;;;29.23;3.88;;;;;;;;;;5183174;23;20081;-90
2021/10/15 06:58:12;;;;;;;22.42;3.17;;;;;;;;;;5008795;28;20085;-89
2021/10/15 07:00:47;;;;;;;23.02;4.03;;;;;;;;;;5014983;28;20048;-90
2021/10/15 07:03:30;;;;;;;25.42;4.25;;;;;;;;;;5028961;28;20473;-89
2021/10/15 07:11:57;;;;;;;24.70;4.90;;;;;;;;;;4989802;28;20057;-89
2021/10/15 07:14:28;;;;;;;25.95;4.22;;;;;;;;;;4886933;28;20509;-89
2021/10/15 07:16:56;;;;;;;22.90;3.95;;;;;;;;;;4974947;28;20026;-89
2021/10/15 07:19:27;;;;;;;30.35;3.70;;;;;;;;;;4971674;28;20029;-90
2021/10/15 07:21:53;;;;;;;32.88;4.15;;;;;;;;;;5071979;23;20140;-90
2021/10/15 07:26:58;;;;;;;26.27;5.05;;;;;;;;;;1890969;23;20305;-89
2021/10/15 07:29:24;;;;;;;21.88;4.38;;;;;;;;;;5011745;28;20811;-89
2021/10/15 07:31:49;;;;;;;29.20;4.63;;;;;;;;;;5014364;28;20045;-89
2021/10/15 07:34:15;;;;;;;24.60;4.18;;;;;;;;;;5014227;28;20550;-89
2021/10/15 07:36:41;;;;;;;33.65;4.80;;;;;;;;;;5013008;28;20115;-89
2021/10/15 07:39:12;;;;;;;29.30;5.35;;;;;;;;;;5013592;28;20428;-89
2021/10/15 07:41:45;;;;;;;36.35;4.68;;;;;;;;;;5012853;28;20025;-89
2021/10/15 07:44:10;;;;;;;32.72;4.28;;;;;;;;;;5014389;28;20030;-89
2021/10/15 07:46:36;;;;;;;37.42;5.88;;;;;;;;;;5012500;28;20029;-89
2021/10/15 07:59:48;;;;;;;32.08;5.93;;;;;;;;;;4967948;28;20062;-89
2021/10/15 08:02:14;;;;;;;28.65;4.88;;;;;;;;;;4987254;28;20039;-89
2021/10/15 08:04:42;;;;;;;32.15;6.18;;;;;;;;;;4987652;23;20046;-89
2021/10/15 08:07:09;;;;;;;36.80;5.80;;;;;;;;;;5038819;28;20037;-89
2021/10/15 08:12:09;;;;;;;38.17;6.07;;;;;;;;;;1359704;22;20221;-88
2021/10/15 08:14:39;;;;;;;30.80;5.47;;;;;;;;;;5067658;23;20065;-90
2021/10/15 08:22:16;;;;;;;36.85;5.05;;;;;;;;;;5126964;22;20053;-89
2021/10/15 08:27:11;;;;;;;29.85;4.80;;;;;;;;;;5071876;22;20060;-89
2021/10/15 08:29:39;;;;;;;32.58;4.65;;;;;;;;;;5030481;23;20773;-90
2021/10/15 08:32:05;;;;;;;22.92;4.47;;;;;;;;;;4991139;28;20034;-89
2021/10/15 08:34:32;;;;;;;32.78;5.30;;;;;;;;;;4992954;28;20065;-89
2021/10/15 08:36:58;;;;;;;21.13;4.28;;;;;;;;;;4993025;28;20104;-89
2021/10/15 08:39:27;;;;;;;22.80;4.50;;;;;;;;;;4993219;28;20034;-90
2021/10/15 08:41:56;;;;;;;31.92;4.57;;;;;;;;;;4993470;28;20060;-90
2021/10/15 08:44:22;;;;;;;31.40;4.70;;;;;;;;;;4992926;28;20572;-90
2021/10/15 08:46:48;;;;;;;26.88;4.68;;;;;;;;;;4993231;28;20021;-89
2021/10/15 08:49:13;;;;;;;26.33;5.18;;;;;;;;;;4994570;28;20025;-89
2021/10/15 08:54:11;;;;;;;21.40;3.88;;;;;;;;;;5017779;22;20057;-90
2021/10/15 08:56:40;;;;;;;18.77;3.58;;;;;;;;;;4975849;28;20533;-90
2021/10/15 08:59:07;;;;;;;24.48;4.15;;;;;;;;;;4973218;28;20076;-90
2021/10/15 09:01:41;;;;;;;34.28;5.07;;;;;;;;;;4973947;28;20422;-90
2021/10/15 09:04:11;;;;;;;20.77;3.25;;;;;;;;;;4970852;28;20022;-90
2021/10/15 09:06:40;;;;;;;28.15;3.65;;;;;;;;;;4969795;28;20022;-90
2021/10/15 09:09:07;;;;;;;;;;;;;;;;;;4990467;28;20033;-89
2021/10/15 09:11:35;;;;;;;27.97;4.83;;;;;;;;;;4973288;28;20028;-89
2021/10/15 09:14:06;;;;;;;18.15;3.47;;;;;;;;;;4973507;28;20270;-90
2021/10/15 09:16:50;;;;;;;22.15;3.65;;;;;;;;;;4972478;28;20101;-90
2021/10/15 09:19:24;;;;;;;27.25;3.97;;;;;;;;;;4997957;23;20057;-90
2021/10/15 09:22:08;;;;;;;25.55;4.43;;;;;;;;;;4989403;28;20109;-89
2021/10/15 09:24:37;;;;;;;31.77;4.85;;;;;;;;;;4973114;28;20029;-89
2021/10/15 09:27:10;;;;;;;30.50;6.22;;;;;;;;;;4971363;28;20018;-89
2021/10/15 09:29:46;;;;;;;22.65;4.07;;;;;;;;;;4973619;28;20035;-90
2021/10/15 09:32:12;;;;;;;26.27;4.97;;;;;;;;;;4973045;28;20725;-90
2021/10/15 09:34:41;;;;;;;24.05;4.47;;;;;;;;;;4973228;28;20174;-89
2021/10/15 09:37:19;;;;;;;36.63;5.55;;;;;;;;;;4988277;28;20033;-89
2021/10/15 09:39:46;;;;;;;28.65;5.50;;;;;;;;;;4972393;28;20031;-89
2021/10/15 09:42:17;;;;;;;32.95;5.93;;;;;;;;;;4972546;28;20023;-89
2021/10/15 09:44:42;;;;;;;23.17;4.43;;;;;;;;;;4976681;28;20033;-89
2021/10/15 09:47:17;;;;;;;22.48;4.30;;;;;;;;;;4976963;28;20034;-89
2021/10/15 09:52:26;;;;;;;30.88;5.28;;;;;;;;;;5036301;23;20089;-89
2021/10/15 09:54:55;;;;;;;28.17;5.10;;;;;;;;;;4788377;22;20100;31
2021/10/15 09:57:28;;;;;;;29.92;5.28;;;;;;;;;;4972176;28;19942;-89
2021/10/15 10:00:00;;;;;;;24.55;4.85;;;;;;;;;;4999630;28;20033;-89
2021/10/15 10:02:28;;;;;;;28.40;4.30;;;;;;;;;;5015663;28;20036;-89
2021/10/15 10:04:56;;;;;;;27.70;4.50;;;;;;;;;;5039310;22;20132;-89
2021/10/15 10:07:22;;;;;;;19.17;4.25;;;;;;;;;;5031956;28;20441;-89
2021/10/15 10:09:48;;;;;;;23.02;4.25;;;;;;;;;;5032170;28;20381;-89
2021/10/15 10:14:51;;;;;;;22.38;4.20;;;;;;;;;;5275731;23;20066;-89
2021/10/15 10:17:20;;;;;;;32.83;5.80;;;;;;;;;;4991931;28;20360;-89
2021/10/15 10:19:47;;;;;;;21.13;4.65;;;;;;;;;;4992467;28;20027;-89
2021/10/15 10:27:30;;;;;;;33.88;5.07;;;;;;;;;;5056560;23;20092;-89
2021/10/15 10:29:58;;;;;;;26.80;4.90;;;;;;;;;;5033628;28;20028;-89
2021/10/15 10:32:27;;;;;;;28.58;4.85;;;;;;;;;;5009977;28;20045;-89
2021/10/15 10:34:54;;;;;;;21.48;4.00;;;;;;;;;;5050907;23;20767;-89
2021/10/15 10:37:22;;;;;;;24.40;3.78;;;;;;;;;;5011240;28;20033;-89
2021/10/15 10:40:10;;;;;;;24.95;4.35;;;;;;;;;;5006928;28;20023;-89
2021/10/15 10:42:55;;;;;;;24.15;4.40;;;;;;;;;;4990548;28;20037;-89
2021/10/15 10:45:21;;;;;;;28.13;5.82;;;;;;;;;;4989091;28;20057;-89
2021/10/15 10:48:05;;;;;;;23.13;4.05;;;;;;;;;;4991942;28;20018;-88
2021/10/15 10:50:34;;;;;;;22.30;3.90;;;;;;;;;;4991409;28;20470;-89
2021/10/15 10:53:04;;;;;;;21.27;3.58;;;;;;;;;;4986201;28;20494;-89
2021/10/15 10:55:31;;;;;;;21.48;3.25;;;;;;;;;;4991866;28;20033;-89
2021/10/15 10:57:58;;;;;;;23.83;5.20;;;;;;;;;;4991241;28;20049;-89
2021/10/15 11:00:41;;;;;;;26.35;3.65;;;;;;;;;;5036122;23;20119;-89
2021/10/15 11:03:08;;;;;;;20.42;3.50;;;;;;;;;;5013495;28;20040;-88
2021/10/15 11:05:39;;;;;;;17.15;4.05;;;;;;;;;;4997047;28;20756;-88
2021/10/15 11:08:24;;;;;;;14.98;3.58;;;;;;;;;;5014532;28;20033;-89
2021/10/15 11:11:12;;;;;;;23.05;4.13;;;;;;;;;;5013489;28;20116;-89
2021/10/15 11:24:22;;;;;;;25.87;3.70;;;;;;;;;;2246297;22;20261;-89
2021/10/15 11:35:08;;;;;;;16.90;3.60;;;;;;;;;;3307757;22;20489;-90
2021/10/15 11:50:35;;;;;;;15.93;4.25;;;;;;;;;;5031616;28;20631;-89
2021/10/15 11:53:03;;;;;;;16.52;2.75;;;;;;;;;;5012314;28;20133;-89
2021/10/15 11:55:36;;;;;;;30.42;4.88;;;;;;;;;;4995519;28;20017;-89
2021/10/15 12:00:35;;;;;;;22.48;4.03;;;;;;;;;;5012429;28;20061;-89
2021/10/15 12:03:01;;;;;;;20.48;3.95;;;;;;;;;;4993797;28;20022;-89
2021/10/15 12:05:27;;;;;;;22.90;4.22;;;;;;;;;;4996189;28;20437;-89
2021/10/15 12:07:56;;;;;;;22.60;3.60;;;;;;;;;;4994478;28;20030;-89
2021/10/15 12:10:24;;;;;;;17.25;3.53;;;;;;;;;;4996454;28;20022;-89
2021/10/15 12:12:51;;;;;;;28.73;5.55;;;;;;;;;;4989257;28;20030;-89
2021/10/15 12:15:16;;;;;;;22.17;4.57;;;;;;;;;;4995388;28;20072;-89
2021/10/15 12:17:42;;;;;;;16.25;3.63;;;;;;;;;;4992515;28;20080;-89
2021/10/15 12:20:14;;;;;;;21.08;5.68;;;;;;;;;;4976756;28;20017;-90
2021/10/15 12:22:39;;;;;;;19.88;5.15;;;;;;;;;;4987067;28;20018;-89
2021/10/15 12:25:10;;;;;;;17.83;4.47;;;;;;;;;;4987798;28;20025;-89
2021/10/15 12:27:43;;;;;;;17.88;4.00;;;;;;;;;;5247759;22;20367;-90
2021/10/15 12:35:32;;;;;;;19.50;4.80;;;;;;;;;;5027559;28;20049;-90
2021/10/15 12:38:05;;;;;;;15.32;3.95;;;;;;;;;;5045214;23;20088;-89
2021/10/15 12:48:25;;;;;;;22.48;4.30;;;;;;;;;;5007752;28;20042;-89
2021/10/15 12:51:03;;;;;;;16.23;4.75;;;;;;;;;;4992741;28;20044;-89
2021/10/15 12:53:39;;;;;;;21.45;4.53;;;;;;;;;;4992475;28;20135;-89
2021/10/15 12:56:13;;;;;;;18.85;3.67;;;;;;;;;;4989643;28;20117;-89
2021/10/15 12:58:45;;;;;;;16.35;4.55;;;;;;;;;;4990327;28;20025;-89
2021/10/15 13:01:18;;;;;;;16.23;4.18;;;;;;;;;;4992068;28;20022;-89
2021/10/15 13:03:47;;;;;;;18.77;4.40;;;;;;;;;;4992085;28;20022;-89
2021/10/15 13:06:16;;;;;;;21.15;3.92;;;;;;;;;;4992167;28;20030;-89
2021/10/15 13:08:46;;;;;;;15.00;3.95;;;;;;;;;;4991199;28;20104;-89
2021/10/15 13:11:18;;;;;;;19.92;4.10;;;;;;;;;;4993247;28;20022;-89
2021/10/15 13:13:50;;;;;;;18.77;4.00;;;;;;;;;;4991734;28;20117;-89
2021/10/15 13:16:17;;;;;;;13.90;4.15;;;;;;;;;;4982887;23;20746;-89
2021/10/15 13:18:46;;;;;;;16.10;4.15;;;;;;;;;;5006845;28;20347;-89
2021/10/15 13:21:15;;;;;;;22.65;4.68;;;;;;;;;;5002909;28;20025;-89
2021/10/15 13:23:42;;;;;;;19.60;4.65;;;;;;;;;;5004462;28;20022;-89
2021/10/15 13:26:08;;;;;;;18.20;3.97;;;;;;;;;;5006279;28;20478;-89
2021/10/15 13:28:35;;;;;;;22.60;4.60;;;;;;;;;;5006372;28;20057;-89
2021/10/15 13:31:02;;;;;;;13.45;3.30;;;;;;;;;;5007572;28;20021;-89
2021/10/15 13:33:28;;;;;;;15.60;3.33;;;;;;;;;;5006418;28;20041;-89
2021/10/15 13:35:59;;;;;;;19.58;4.05;;;;;;;;;;5008439;28;20030;-89
2021/10/15 13:38:28;;;;;;;20.27;5.05;;;;;;;;;;5006788;28;20225;-89
2021/10/15 13:41:05;;;;;;;17.10;3.72;;;;;;;;;;5002857;28;20030;-89
2021/10/15 13:43:44;;;;;;;16.35;3.70;;;;;;;;;;5004331;28;20033;-89
2021/10/15 13:51:23;;;;;;;19.65;3.95;;;;;;;;;;5046503;28;20047;-89
2021/10/15 13:53:52;;;;;;;20.75;4.78;;;;;;;;;;5042156;28;20041;-89
2021/10/15 14:09:59;;;;;;;25.13;5.88;;;;;;;;;;2422303;22;20016;-90
2021/10/15 14:17:32;;;;;;;34.83;6.80;;;;;;;;;;5026920;28;20049;-88
2021/10/15 14:19:59;;;;;;;36.95;7.38;;;;;;;;;;5007309;28;20021;-88
2021/10/15 14:22:24;;;;;;;32.17;6.32;;;;;;;;;;5010263;23;21118;-88
2021/10/15 14:32:45;;;;;;;29.73;5.88;;;;;;;;;;3571861;22;20271;-89
2021/10/15 14:35:13;;;;;;;32.92;6.15;;;;;;;;;;5007313;28;20408;-89
2021/10/15 14:40:19;;;;;;;29.85;6.05;;;;;;;;;;5008787;28;20049;-89
2021/10/15 14:42:45;;;;;;;34.22;7.32;;;;;;;;;;4985354;28;20106;-86
2021/10/15 14:45:11;;;;;;;22.87;4.60;;;;;;;;;;5013108;28;20053;-86
2021/10/15 14:47:36;;;;;;;35.58;6.53;;;;;;;;;;4995623;28;20277;-86
2021/10/15 14:50:03;;;;;;;23.60;5.38;;;;;;;;;;5013340;28;20036;-86
2021/10/15 14:52:28;;;;;;;28.95;5.97;;;;;;;;;;5013216;28;20485;-87
2021/10/15 14:54:53;;;;;;;27.33;6.78;;;;;;;;;;4995959;28;20026;-87
2021/10/15 14:57:18;;;;;;;24.90;4.93;;;;;;;;;;4996662;28;20076;-87
2021/10/15 14:59:44;;;;;;;28.40;5.93;;;;;;;;;;5015306;28;20378;-87
2021/10/15 15:02:10;;;;;;;24.95;5.63;;;;;;;;;;5002028;28;20269;-88
2021/10/15 15:04:35;;;;;;;37.45;6.47;;;;;;;;;;4995484;28;20025;-88
2021/10/15 15:07:00;;;;;;;29.45;5.65;;;;;;;;;;4996429;28;20026;-88
2021/10/15 15:09:25;;;;;;;21.98;4.97;;;;;;;;;;4995315;28;20018;-88
2021/10/15 15:11:51;;;;;;;18.07;4.63;;;;;;;;;;4995370;28;20034;-88
2021/10/15 15:14:16;;;;;;;24.08;5.28;;;;;;;;;;4995599;28;20280;-87
2021/10/15 15:16:41;;;;;;;27.60;5.85;;;;;;;;;;4995763;28;20038;-88
2021/10/15 15:19:07;;;;;;;24.73;4.83;;;;;;;;;;4995265;28;20026;-88
2021/10/15 15:21:33;;;;;;;23.50;7.05;;;;;;;;;;4995280;28;20249;-88
2021/10/15 15:23:58;;;;;;;36.65;5.88;;;;;;;;;;4995380;28;20033;-88
2021/10/15 15:26:23;;;;;;;28.85;6.25;;;;;;;;;;4983746;28;20022;-88
2021/10/15 15:28:51;;;;;;;28.13;6.18;;;;;;;;;;4981553;28;20025;-88
2021/10/15 15:31:17;;;;;;;24.98;4.85;;;;;;;;;;4995290;28;20092;-88
2021/10/15 15:33:42;;;;;;;20.65;5.13;;;;;;;;;;4978949;28;20422;-88
2021/10/15 15:36:08;;;;;;;24.00;5.45;;;;;;;;;;4971610;28;20552;-87
2021/10/15 15:38:33;;;;;;;28.50;5.72;;;;;;;;;;4970487;28;20046;-88
2021/10/15 15:40:59;;;;;;;19.97;6.03;;;;;;;;;;4970678;28;20018;-88
2021/10/15 15:43:26;;;;;;;26.65;5.28;;;;;;;;;;4958622;28;20274;-88
2021/10/15 15:45:53;;;;;;;29.20;5.63;;;;;;;;;;4968422;28;20026;-87
2021/10/15 15:48:18;;;;;;;29.38;5.00;;;;;;;;;;4960162;28;20038;-87
2021/10/15 15:50:44;;;;;;;24.10;5.28;;;;;;;;;;4962667;28;20455;-88
2021/10/15 15:53:09;;;;;;;23.67;4.80;;;;;;;;;;4965964;28;20155;-88
2021/10/15 15:55:35;;;;;;;35.05;7.00;;;;;;;;;;4960339;28;20054;-88
2021/10/15 15:58:00;;;;;;;27.13;4.57;;;;;;;;;;4985575;28;20073;-87
2021/10/15 16:00:26;;;;;;;22.73;4.15;;;;;;;;;;4977234;28;20023;-88
2021/10/15 16:02:51;;;;;;;28.35;5.85;;;;;;;;;;4960828;28;20073;-89
2021/10/15 16:05:16;;;;;;;25.50;5.40;;;;;;;;;;4957354;28;20498;-88
2021/10/15 16:07:42;;;;;;;30.17;4.95;;;;;;;;;;4968154;28;20057;-88
2021/10/15 16:10:08;;;;;;;23.17;5.30;;;;;;;;;;4957067;28;20030;-88
2021/10/15 16:12:33;;;;;;;35.53;6.40;;;;;;;;;;4962960;28;20298;-88
2021/10/15 16:14:58;;;;;;;24.92;6.07;;;;;;;;;;4981303;28;20497;-88
2021/10/15 16:17:24;;;;;;;24.27;4.57;;;;;;;;;;4960007;28;20029;-88
2021/10/15 16:19:50;;;;;;;25.52;5.22;;;;;;;;;;4969230;28;20057;-89
2021/10/15 16:22:15;;;;;;;26.08;4.88;;;;;;;;;;4959153;28;20030;-89
2021/10/15 16:24:41;;;;;;;27.33;4.95;;;;;;;;;;4979961;28;20029;-89
2021/10/15 16:27:07;;;;;;;27.25;5.80;;;;;;;;;;4969062;28;20114;-88
2021/10/15 16:29:32;;;;;;;24.10;4.80;;;;;;;;;;4955053;28;20142;-89
2021/10/15 16:31:57;;;;;;;25.52;4.95;;;;;;;;;;4970992;28;20026;-89
2021/10/15 16:34:22;;;;;;;27.47;6.03;;;;;;;;;;4967227;28;20015;-88
2021/10/15 16:36:49;;;;;;;28.13;4.82;;;;;;;;;;4961118;28;20278;-88
2021/10/15 16:39:15;;;;;;;35.10;5.80;;;;;;;;;;5003151;28;20137;-89
2021/10/15 16:41:40;;;;;;;23.27;5.45;;;;;;;;;;4973808;28;20113;-88
2021/10/15 16:44:05;;;;;;;24.70;5.72;;;;;;;;;;4975564;28;20017;-88
2021/10/15 16:46:31;;;;;;;27.10;5.37;;;;;;;;;;4982164;28;20021;-88
2021/10/15 16:48:56;;;;;;;31.77;5.40;;;;;;;;;;4999900;28;20266;-88
2021/10/15 16:51:21;;;;;;;33.65;5.20;;;;;;;;;;4978988;28;20069;-88
2021/10/15 16:53:46;;;;;;;27.25;5.43;;;;;;;;;;4986789;28;20042;-89
2021/10/15 16:56:12;;;;;;;28.42;5.00;;;;;;;;;;4976520;28;20018;-88